Terminal Aerodrome Forecast
Issued by NWS

Home | Current Version | Previous Version | Text Only | Print | Product List | Glossary On
Versions: 1 2 3 4 5 6 7 8 9 10 11 12 13 14 15 16 17 18 19 20 21 22 23 24 25 26 27 28 29 30 31 32 33 34 35
000
FTUS43 KDVN 281910 AAA
TAFCID
TAF AMD
KCID 281910Z 2819/2918 12011G19KT P6SM VCSH OVC100
      TEMPO 2821/2823 3SM -SHRA BR OVC040
     FM282300 14009KT 5SM -RA BR OVC035
     FM290800 17005KT 3SM -RA BR OVC025
     FM291200 VRB03KT 2SM BR SCT007 OVC015
     FM291600 28007KT 6SM BR BKN025=

USA.gov is the U.S. government's official web portal to all federal, state and local government web resources and services.